Terminal Aerodrome Forecast
Issued by NWS

Home | Current Version | Previous Version | Text Only | Print | Product List | Glossary Off
Versions: 1 2 3 4 5 6 7 8 9 10 11 12 13 14 15 16 17 18 19 20

000
FTUS43 KBIS 231100
TAFDIK
TAF
KDIK 231137Z 2312/2412 32015KT 5SM -SN BR OVC010
      TEMPO 2312/2316 3SM -SN BR OVC006
     FM231600 34016KT 5SM BR OVC008
     FM232200 30008KT 6SM BR OVC012
     FM240300 23006KT P6SM SCT015 BKN070 OVC250=

USA.gov is the U.S. government's official web portal to all federal, state and local government web resources and services.